Chestnut Mound, Tennessee
Current Conditions -  °F | °C
As of 9:35 PM on Friday 31 Oct 2014 (Local Time) from KSRB Reporting Station
Scattered Clouds Scattered Clouds  
Wind Chill: -2°   Ceiling: Unl
Heat Index:   Visibility: 10mi
Dew Point:   Wind: 10mph
Humidity: 87%   Direction: 330°NNW
Pressure: 30.06"   Gusts: NA
Location:  36.2°N, 85.83°W
Report Text: KSRB 010235Z AUTO 33009KT 10SM FEW018 SCT029 SCT065 02/00 A3006 RMK
Loading
Personal Weather Stations






























Interactive Weather Map
Tropical Storm Tracking
New forecast layout! Learn more

10-Day Weather Forecast

Advertisements
Track Severe Weather on mobile